San Antonio, Texas
Traffic Map
Current Weather Conditions
San Antonio, Texas
Clear
Clear
34°
Feels Like: 35°
Wind Chill: 34° Ceiling: Unl
Heat Index: 35° Visibility: 10mi
Dew Point: 18° Wind: 7mph
Humidity: 39% Direction: 100° (E)
Pressure: 29.93in Gusts: 0mph
Raw Report DataKSKF 012158Z AUTO 10006KT 10SM CLR 34/18 A2993 RMK AO2 SLP127 T03380181 $
Traffic Incident Summary
Active as of:
Severity:
Category:
InformationThere was an issue retrieving the traffic information for this location. Please try a different location or try again shortly.
Advertisements
Track Severe Weather on mobile